Home > Products > Valid Products > TAF

000
FTUS42 TJSJ 182300 AAA
TAFJBQ
TAF AMD
TJBQ 182347Z 1900/1924 12003KT P6SM VCTS SCT030CB BKN080
      TEMPO 1900/1901 6SM -TSRA BR BKN030CB
     FM191400 08013KT P6SM SCT025
     FM191700 07014G21KT P6SM SCT025 PROB30 1917/1921 VRB15G25KT 4SM
      TSRA OVC025CB
     FM192300 09008KT P6SM SCT025 BKN070
      AMD NOT SKED 1902/1911=



000
FTUS42 TJSJ 182300 CCA
TAFKPK
TAF COR
TKPK 182344Z 1900/1924 10008KT P6SM VCTS SCT022CB BKN035
      TEMPO 1900/1903 5SM TSRA BR BKN018CB
     FM191300 09012KT P6SM VCSH SCT025 SCT070
     FM192300 07008KT P6SM FEW025 SCT070
      AMD NOT SKED 1902/1911=



000
FTUS42 TJSJ 182300 RRA
TAFKPK
TAF
TKPK 182342Z 1900/1924 10008KT P6SM VCSH FEW022
     FM191300 09012KT P6SM VCSH SCT025 SCT070
     FM192300 07008KT P6SM FEW025 SCT070
      AMD NOT SKED 1902/1911=



000
FTUS42 TJSJ 182300 RRA
TAFJBQ
TAF
TJBQ 182342Z 1900/1924 12003KT P6SM VCSH SCT030 BKN080
     FM191400 08013KT P6SM SCT025
     FM191700 07014G21KT P6SM SCT025 PROB30 1917/1921 VRB15G25KT 4SM
      TSRA OVC025CB
     FM192300 09008KT P6SM SCT025 BKN070
      AMD NOT SKED 1902/1911=



000
FTUS42 TJSJ 182300 RRA
TAFNCM
TAF
TNCM 182342Z 1900/1924 10007KT P6SM VCSH FEW017
     FM191300 11012KT P6SM VCSH SCT025 SCT070
     FM192300 10008KT P6SM FEW025 SCT070=



000
FTUS42 TJSJ 182300 RRA
TAFISX
TAF
TISX 182342Z 1900/1924 05005KT P6SM VCTS SCT025CB BKN040
     FM191300 11013KT P6SM SCT025 SCT070
     FM192300 06006KT P6SM FEW025 SCT070=



000
FTUS42 TJSJ 182300 RRA
TAFIST
TAF
TIST 182342Z 1900/1924 09007KT P6SM VCTS SCT025CB BKN040
     FM191300 13012KT P6SM VCSH SCT025 SCT070
     FM192300 09008KT P6SM FEW025 SCT070=



000
FTUS42 TJSJ 182300 RRA
TAFJSJ
TAF
TJSJ 182342Z 1900/1924 07008KT P6SM VCSH SCT022 BKN100
     FM191300 08012KT P6SM VCSH SCT025 SCT040 SCT070
     FM192200 10006KT P6SM SCT030 SCT070=



000
FTUS42 TJSJ 182300 RRA
TAFJPS
TAF
TJPS 182342Z 1900/1924 06005KT P6SM SCT030 BKN060
     FM191500 13012KT P6SM VCSH FEW030
     FM192330 09007KT P6SM FEW030 SCT060
      AMD NOT SKED TIL 190300=



000
FTUS42 TJSJ 182300 RRA
TAFJMZ
TAF
TJMZ 182342Z 1900/1924 VRB06KT P6SM BKN060
     FM191630 27010KT P6SM VCTS SCT025CB BKN040 PROB30 1917/1921
      VRB15KT 5SM TSRA BKN025CB
     FM192200 06006KT P6SM SCT025 SCT040
      AMD NOT SKED TIL 191200=



000
FTUS42 TJSJ 182300 AAA
TAFNCM
TAF AMD
TNCM 182340Z 1900/1924 10007KT P6SM VCTS SCT022CB BKN035
      TEMPO 1900/1903 5SM TSRA BR BKN018CB
     FM191300 11012KT P6SM VCSH SCT025 SCT070
     FM192300 10008KT P6SM FEW025 SCT070=



000
FTUS42 TJSJ 182200 AAA
TAFJMZ
TAF AMD
TJMZ 182231Z 1823/1918 VRB18KT 5SM -TSRA BKN025CB
     FM182330 06005KT P6SM VCSH BKN040
     FM191530 27010KT P6SM VCSH SCT025 BKN040
      AMD NOT SKED 1823/1916=



000
FTUS42 TJSJ 182100 AAA
TAFJBQ
TAF AMD
TJBQ 182110Z 1821/1918 02008KT P6SM VCTS SCT019CB BKN035
      TEMPO 1821/1823 VRB15G23KT 6SM -TSRA OVC025CB
     FM182300 10006KT P6SM VCSH FEW040
     FM191400 08013KT P6SM SCT025
      AMD NOT SKED 1902/1911=



000
FTUS42 TJSJ 182000 AAA
TAFNCM
TAF AMD
TNCM 182029Z 1820/1918 13012KT P6SM VCTS SCT015CB
      TEMPO 1820/1822 VRB15G20KT 5SM TSRA BKN015CB
     FM190000 09009KT P6SM VCSH SCT020=



000
FTUS42 TJSJ 181700
TAFJPS
TAF
TJPS 181734Z 1818/1918 17011KT P6SM VCTS SCT030CB
     FM182300 06005KT P6SM VCTS SCT040CB
     FM191500 13012KT P6SM VCSH FEW030 SCT060
      AMD NOT SKED TIL 190300=



000
FTUS42 TJSJ 181700
TAFNCM
TAF
TNCM 181734Z 1818/1918 13012KT P6SM VCTS SCT015CB
     FM190000 09009KT P6SM VCSH SCT020=



000
FTUS42 TJSJ 181700
TAFJBQ
TAF
TJBQ 181734Z 1818/1918 05014KT P6SM SCT040
     FM181900 08012KT P6SM VCTS SCT040CB
     FM182300 10006KT P6SM VCSH FEW040
     FM191400 08013KT P6SM SCT025
      AMD NOT SKED 1902/1911=



000
FTUS42 TJSJ 181700
TAFISX
TAF
TISX 181734Z 1818/1918 10010KT P6SM FEW020
     FM181900 11008KT P6SM VCSH SCT020
     FM182300 05005KT P6SM VCTS BKN040CB
     FM191300 11013KT P6SM VCSH SCT025=



000
FTUS42 TJSJ 181700
TAFKPK
TAF
TKPK 181734Z 1818/1918 08010KT P6SM VCTS SCT015CB
     FM190000 07010KT P6SM VCSH SCT020
      AMD NOT SKED 1902/1911=



000
FTUS42 TJSJ 181700
TAFIST
TAF
TIST 181734Z 1818/1918 16011KT P6SM FEW040
     FM181900 14011KT P6SM VCSH SCT040
     FM182300 09007KT P6SM VCTS BKN040CB
     FM191300 13012KT P6SM VCSH SCT025=



000
FTUS42 TJSJ 181700
TAFJMZ
TAF
TJMZ 181734Z 1818/1918 26006KT P6SM SCT040
     FM181930 VRB08KT P6SM VCTS BKN030CB
     FM182230 09004KT P6SM SCT040
     FM191530 27010KT P6SM VCSH SCT025 BKN040
      AMD NOT SKED 1823/1916=



000
FTUS42 TJSJ 181700
TAFJSJ
TAF
TJSJ 181734Z 1818/1918 04012KT P6SM FEW025 SCT040
     FM182200 12006KT P6SM VCTS BKN040CB
     FM191300 08012KT P6SM SCT025=



000
FTUS42 TJSJ 181500 AAA
TAFJSJ
TAF AMD
TJSJ 181551Z 1816/1912 03010KT P6SM FEW025 SCT040
     FM182200 12006KT P6SM VCTS BKN040CB=



000
FTUS42 TJSJ 181100
TAFJSJ
TAF
TJSJ 181133Z 1812/1912 00000KT P6SM SKC
     FM181300 08005KT P6SM VCTS SCT030CB
      TEMPO 1814/1818 4SM -TSRA BR BKN030CB
     FM182200 12006KT P6SM VCTS BKN040CB=



000
FTUS42 TJSJ 181100
TAFIST
TAF
TIST 181133Z 1812/1912 06012KT P6SM VCTS BKN040CB
     FM181450 13011KT P6SM VCTS BKN040CB
     FM182300 09007KT P6SM VCTS BKN040CB=



000
FTUS42 TJSJ 181100
TAFJMZ
TAF
TJMZ 181133Z 1812/1912 09004KT P6SM SKC
     FM181450 30006KT P6SM SCT030
     FM181700 26008KT P6SM VCTS BKN030CB
     FM182150 09004KT P6SM SCT040
      AMD NOT SKED AFT 182300=



000
FTUS42 TJSJ 181100
TAFNCM
TAF
TNCM 181133Z 1812/1912 12005KT P6SM VCTS SCT015CB
      TEMPO 1812/1816 VRB08KT 4SM -TSRA BKN015CB
     FM190000 09009KT P6SM VCSH SCT020=



000
FTUS42 TJSJ 181100
TAFISX
TAF
TISX 181133Z 1812/1912 11008KT P6SM VCTS BKN040CB
      TEMPO 1812/1814 VRB10KT 4SM -TSRA BR BKN015CB
     FM182250 05005KT P6SM VCTS BKN040CB=



000
FTUS42 TJSJ 181100
TAFJPS
TAF
TJPS 181133Z 1812/1912 00000KT P6SM SKC
     FM181450 15011KT P6SM VCTS SCT040CB
     FM182300 06005KT P6SM VCTS SCT040CB
      AMD NOT SKED TIL 190300=



000
FTUS42 TJSJ 181100
TAFJBQ
TAF
TJBQ 181133Z 1812/1912 VRB04KT P6SM SKC
     FM181350 06013KT P6SM FEW025
     FM181730 08012KT P6SM VCTS BKN040CB
     FM182250 10006KT P6SM VCTS SCT040CB
      AMD NOT SKED 1902/1911=



000
FTUS42 TJSJ 181100
TAFKPK
TAF
TKPK 181133Z 1812/1912 08010KT P6SM VCTS SCT015CB
      TEMPO 1813/1817 5SM -TSRA BKN015CB
     FM190000 07010KT P6SM VCSH SCT020
      AMD NOT SKED 1902/1911=



000
FTUS42 TJSJ 181000 AAD
TAFIST
TAF AMD
TIST 181035Z 1811/1906 VRB25KT 2SM TSRA BR BKN015CB
     FM181330 14011KT P6SM VCTS SCT025CB BKN040
     FM182300 09008KT P6SM VCSH SCT025=



000
FTUS42 TJSJ 181000 AAC
TAFIST
TAF AMD
TIST 181028Z 1810/1906 08005KT P6SM VCTS SCT040CB
      TEMPO 1810/1812 VRB25KT 4SM -TSRA BKN025CB
     FM181330 14011KT P6SM VCTS SCT025CB BKN040
     FM182300 09008KT P6SM VCSH SCT025=



000
FTUS42 TJSJ 181000 AAB
TAFIST
TAF AMD
TIST 181015Z 1810/1906 08005KT P6SM VCTS SCT040CB
      TEMPO 1810/1812 5SM -TSRA BKN025CB
     FM181330 14011KT P6SM VCTS SCT025CB BKN040
     FM182300 09008KT P6SM VCSH SCT025=



000
FTUS42 TJSJ 181000 AAB
TAFISX
TAF AMD
TISX 181015Z 1810/1906 VRB03KT P6SM VCTS SCT040CB
      TEMPO 1810/1812 5SM -TSRA BKN025CB
     FM181330 11012KT P6SM VCTS SCT025CB BKN040
     FM182300 05005KT P6SM VCSH SCT025=



000
FTUS42 TJSJ 180900 AAA
TAFISX
TAF AMD
TISX 180902Z 1809/1906 VRB03KT P6SM FEW025
      TEMPO 1809/1811 5SM SHRA BKN025
     FM181330 11012KT P6SM VCTS SCT025CB BKN040
     FM182300 05005KT P6SM VCSH SCT025=



000
FTUS42 TJSJ 180700 AAA
TAFIST
TAF AMD
TIST 180726Z 1807/1906 08005KT P6SM VCSH FEW025
      TEMPO 1809/1811 5SM SHRA BKN025
     FM181330 14011KT P6SM VCTS SCT025CB BKN040
     FM182300 09008KT P6SM VCSH SCT025=



000
FTUS42 TJSJ 180500
TAFNCM
TAF
TNCM 180534Z 1806/1906 06008KT P6SM VCSH SCT018
     FM181300 09010KT P6SM VCTS SCT018CB BKN035
      TEMPO 1816/1820 5SM TSRA BKN015CB
     FM190100 09009KT P6SM SCT022=



000
FTUS42 TJSJ 180500
TAFISX
TAF
TISX 180534Z 1806/1906 04003KT P6SM FEW025
     FM181330 11012KT P6SM VCTS SCT025CB BKN040
     FM182300 05005KT P6SM VCSH SCT025=



000
FTUS42 TJSJ 180500
TAFKPK
TAF
TKPK 180534Z 1806/1906 03007KT P6SM VCSH SCT020
     FM181300 06010KT P6SM VCTS SCT018CB BKN035
      TEMPO 1815/1819 5SM TSRA BKN015CB
     FM190100 07010KT P6SM SCT020
      AMD NOT SKED TIL 181100=



000
FTUS42 TJSJ 180500
TAFJBQ
TAF
TJBQ 180534Z 1806/1906 10004KT P6SM FEW025
     FM181400 06011KT P6SM FEW030
     FM181800 06012KT P6SM VCTS SCT025CB BKN040
     FM182200 09007KT P6SM VCSH SCT025 BKN040
      AMD NOT SKED TIL 181100=



000
FTUS42 TJSJ 180500
TAFJPS
TAF
TJPS 180534Z 1806/1906 05003KT P6SM FEW030
     FM181500 16010KT P6SM FEW030
     FM182300 06005KT P6SM VCSH SCT030
      AMD NOT SKED 1812/1903=



000
FTUS42 TJSJ 180500
TAFIST
TAF
TIST 180534Z 1806/1906 08005KT P6SM FEW025
     FM181330 14011KT P6SM VCTS SCT025CB BKN040
     FM182300 09008KT P6SM VCSH SCT025=



000
FTUS42 TJSJ 180500
TAFJSJ
TAF
TJSJ 180534Z 1806/1906 VRB04KT P6SM FEW025
     FM181400 05011KT P6SM FEW030
     FM182200 09008KT P6SM VCSH SCT030=



000
FTUS42 TJSJ 180500
TAFJMZ
TAF
TJMZ 180534Z 1806/1906 VRB04KT P6SM FEW040
     FM181600 26008KT P6SM VCTS SCT030CB BKN040
     FM182200 08006KT P6SM VCSH SCT030 BKN060
      AMD NOT SKED TIL 181200=



000
FTUS42 TJSJ 180100 AAA
TAFNCM
TAF AMD
TNCM 180154Z 1802/1824 07008KT P6SM VCSH SCT020
     FM180700 10010G20KT P6SM VCTS SCT018CB BKN030
     FM181800 14010G18KT P6SM SCT022 BKN040=



000
FTUS42 TJSJ 180100 AAA
TAFKPK
TAF AMD
TKPK 180154Z 1802/1824 03007KT P6SM VCSH SCT019
      TEMPO 1802/1803 BKN019
     FM180700 06010G20KT P6SM VCTS SCT018CB BKN030
     FM181800 10010G18KT P6SM SCT022 BKN040
      AMD NOT SKED 1802/1811=



000
FTUS42 TJSJ 172300
TAFISX
TAF
TISX 172338Z 1800/1824 05005KT P6SM SCT025
     FM181530 11013G22KT P6SM VCTS SCT025CB BKN040
     FM182300 09006KT P6SM VCSH SCT025 SCT040=



000
FTUS42 TJSJ 172300
TAFNCM
TAF
TNCM 172338Z 1800/1824 06010G18KT P6SM VCSH SCT020
     FM180700 10010G20KT P6SM VCTS SCT018CB BKN030
     FM181800 14010G18KT P6SM SCT022 BKN040=



000
FTUS42 TJSJ 172300
TAFKPK
TAF
TKPK 172338Z 1800/1824 03010G18KT P6SM VCSH SCT019
      TEMPO 1800/1802 BKN019
     FM180700 06010G20KT P6SM VCTS SCT018CB BKN030
     FM181800 10010G18KT P6SM SCT022 BKN040
      AMD NOT SKED 1802/1811=



000
FTUS42 TJSJ 172300
TAFJBQ
TAF
TJBQ 172338Z 1800/1824 10004KT P6SM FEW025 SCT100
     FM181400 08013KT P6SM FEW030 SCT070
     FM181800 08013KT P6SM VCTS SCT025CB BKN040
     FM182200 09008KT P6SM VCSH SCT025 BKN040
      AMD NOT SKED 1802/1811=



000
FTUS42 TJSJ 172300
TAFJPS
TAF
TJPS 172338Z 1800/1824 17010KT P6SM FEW030 SCT100
     FM181500 13012KT P6SM FEW030
     FM182300 09007KT P6SM VCSH SCT030 BKN060
      AMD NOT SKED TIL 180300=



000
FTUS42 TJSJ 172300
TAFJMZ
TAF
TJMZ 172338Z 1800/1824 08005KT P6SM FEW040 SCT100
     FM181730 27010KT P6SM VCTS SCT025CB BKN040
     FM182200 06006KT P6SM VCSH SCT030 BKN060
      AMD NOT SKED TIL 181200=



000
FTUS42 TJSJ 172300
TAFIST
TAF
TIST 172338Z 1800/1824 08005KT P6SM FEW025
     FM181530 13013G21KT P6SM VCTS SCT025CB BKN040
     FM182300 09008KT P6SM VCSH SCT025 SCT040=



000
FTUS42 TJSJ 172300
TAFJSJ
TAF
TJSJ 172338Z 1800/1824 08008KT P6SM FEW030 SCT100
     FM181300 06012KT P6SM FEW030
     FM182200 09008KT P6SM VCSH SCT030 BKN050=



000
FTUS42 TJSJ 171700
TAFISX
TAF
TISX 171733Z 1718/1818 10012KT P6SM FEW025
     FM172300 03004KT P6SM FEW025
     FM181300 11012KT P6SM SCT025=



000
FTUS42 TJSJ 171700
TAFJSJ
TAF
TJSJ 171733Z 1718/1818 05012KT P6SM FEW025
     FM172300 10004KT P6SM FEW025
     FM181300 08012KT P6SM SCT025=



000
FTUS42 TJSJ 171700
TAFIST
TAF
TIST 171733Z 1718/1818 13011KT P6SM FEW025
     FM172300 08005KT P6SM FEW025
     FM181300 13012KT P6SM SCT025=



000
FTUS42 TJSJ 171700
TAFJBQ
TAF
TJBQ 171733Z 1718/1818 06010KT P6SM FEW030
     FM172000 07010KT P6SM VCSH SCT025 BKN040
     FM172300 10004KT P6SM FEW025
     FM181400 08013KT P6SM SCT025
      AMD NOT SKED 1802/1811=



000
FTUS42 TJSJ 171700
TAFJPS
TAF
TJPS 171733Z 1718/1818 15010KT P6SM FEW030
     FM172330 05004KT P6SM FEW030
     FM181500 13012KT P6SM FEW030 SCT060
      AMD NOT SKED TIL 180300=



000
FTUS42 TJSJ 171700
TAFJMZ
TAF
TJMZ 171733Z 1718/1818 27010KT P6SM VCSH SCT040
     FM172300 08005KT P6SM FEW040
     FM181530 27010KT P6SM SCT025 BKN040
      AMD NOT SKED 1723/1811=



000
FTUS42 TJSJ 171700
TAFNCM
TAF
TNCM 171733Z 1718/1818 11008KT P6SM FEW020
     FM172300 08007KT P6SM FEW022=



000
FTUS42 TJSJ 171700
TAFKPK
TAF
TKPK 171733Z 1718/1818 05010KT P6SM FEW020
      AMD NOT SKED 1802/1811=



000
FTUS42 TJSJ 171100
TAFKPK
TAF
TKPK 171130Z 1712/1812 05010KT P6SM FEW018
      AMD NOT SKED 1802/1811=



000
FTUS42 TJSJ 171100
TAFISX
TAF
TISX 171130Z 1712/1812 VRB04KT P6SM FEW025
     FM171300 10012KT P6SM FEW025
     FM172300 03004KT P6SM FEW025=



000
FTUS42 TJSJ 171100
TAFIST
TAF
TIST 171130Z 1712/1812 08004KT P6SM FEW025
     FM171300 13011KT P6SM FEW025
     FM172300 08005KT P6SM FEW025=



000
FTUS42 TJSJ 171100
TAFJBQ
TAF
TJBQ 171130Z 1712/1812 VRB03KT P6SM FEW030
     FM171400 08008KT P6SM FEW030
     FM171730 06010KT P6SM VCTS SCT025CB BKN040
     FM172300 10004KT P6SM FEW025
      AMD NOT SKED 1802/1811=



000
FTUS42 TJSJ 171100
TAFNCM
TAF
TNCM 171130Z 1712/1812 07006KT P6SM FEW020
     FM171300 11010KT P6SM SCT020
     FM172300 08007KT P6SM FEW022=



000
FTUS42 TJSJ 171100
TAFJMZ
TAF
TJMZ 171130Z 1712/1812 VRB04KT P6SM SCT030
     FM171500 27010KT P6SM VCSH SCT040
     FM172200 08005KT P6SM SCT040=



000
FTUS42 TJSJ 171100
TAFJSJ
TAF
TJSJ 171130Z 1712/1812 VRB03KT P6SM FEW025
     FM171330 06012KT P6SM FEW025
     FM172300 10004KT P6SM FEW025=



000
FTUS42 TJSJ 171100
TAFJPS
TAF
TJPS 171130Z 1712/1812 VRB03KT P6SM FEW030
     FM171500 15010KT P6SM FEW030
     FM172330 05004KT P6SM FEW030
      AMD NOT SKED TIL 180300=



000
FTUS42 TJSJ 170500
TAFJPS
TAF
TJPS 170520Z 1706/1806 05003KT P6SM FEW030
     FM171500 15010KT P6SM FEW030
     FM172330 VRB05KT P6SM FEW030
      AMD NOT SKED 1712/1803=



000
FTUS42 TJSJ 170500
TAFJBQ
TAF
TJBQ 170520Z 1706/1806 VRB03KT P6SM VCSH FEW030 BKN060
     FM171400 08008KT P6SM FEW030
     FM171730 06010KT P6SM VCTS SCT025CB BKN040
     FM172300 10004KT P6SM FEW025
      AMD NOT SKED TIL 171100=



000
FTUS42 TJSJ 170500
TAFIST
TAF
TIST 170520Z 1706/1806 08004KT P6SM FEW025
     FM171300 13011KT P6SM FEW025
     FM172300 08005KT P6SM FEW025=



000
FTUS42 TJSJ 170500
TAFJSJ
TAF
TJSJ 170520Z 1706/1806 10003KT P6SM VCSH FEW025
     FM171300 07012KT P6SM FEW025
     FM172200 09006KT P6SM FEW025=



000
FTUS42 TJSJ 170500
TAFJMZ
TAF
TJMZ 170520Z 1706/1806 VRB04KT P6SM SCT030
     FM171500 27010KT P6SM VCSH SCT040
     FM172200 08005KT P6SM SCT040
      AMD NOT SKED TIL 171200=



000
FTUS42 TJSJ 170500
TAFISX
TAF
TISX 170520Z 1706/1806 02004KT P6SM FEW025
     FM171300 10012KT P6SM FEW025
     FM172300 03004KT P6SM FEW025=



000
FTUS42 TJSJ 170500
TAFKPK
TAF
TKPK 170520Z 1706/1806 05010KT P6SM FEW018
      AMD NOT SKED TIL 171100=



000
FTUS42 TJSJ 170500
TAFNCM
TAF
TNCM 170520Z 1706/1806 07007KT P6SM FEW020
     FM171300 11010KT P6SM SCT020
     FM172300 08007KT P6SM FEW022=



000
FTUS42 TJSJ 170100 AAA
TAFJBQ
TAF AMD
TJBQ 170131Z 1702/1724 12006KT P6SM VCSH FEW030 BKN060
     FM171400 08013KT P6SM FEW030 SCT070
     FM171730 06011KT P6SM VCTS SCT025CB BKN040
     FM172300 10005KT P6SM FEW025 SCT060
      AMD NOT SKED 1702/1711=



000
FTUS42 TJSJ 162300
TAFKPK
TAF
TKPK 162330Z 1700/1724 04008KT P6SM FEW016
     FM171300 06011KT P6SM SCT020
     FM172300 05007KT P6SM FEW020
      AMD NOT SKED 1702/1711=



000
FTUS42 TJSJ 162300
TAFISX
TAF
TISX 162330Z 1700/1724 06005KT P6SM FEW025
     FM171300 10013KT P6SM SCT025
     FM172300 06006KT P6SM FEW025=



000
FTUS42 TJSJ 162300
TAFJPS
TAF
TJPS 162330Z 1700/1724 07005KT P6SM FEW030
     FM171500 13012KT P6SM FEW030 SCT060
     FM172330 09007KT P6SM FEW030
      AMD NOT SKED TIL 170300=



000
FTUS42 TJSJ 162300
TAFJBQ
TAF
TJBQ 162330Z 1700/1724 11006KT P6SM FEW030 BKN060
     FM171400 08013KT P6SM FEW030 SCT070
     FM171730 06011KT P6SM VCTS SCT025CB BKN040
     FM172300 10005KT P6SM FEW025 SCT060
      AMD NOT SKED 1702/1711=



000
FTUS42 TJSJ 162300
TAFJMZ
TAF
TJMZ 162330Z 1700/1724 15005KT P6SM BKN030
     FM171530 27010KT P6SM SCT025 BKN040
     FM172200 06006KT P6SM SCT040
      AMD NOT SKED TIL 171200=



000
FTUS42 TJSJ 162300
TAFJSJ
TAF
TJSJ 162330Z 1700/1724 07008KT P6SM FEW035 SCT120
     FM171300 08012KT P6SM FEW025 SCT070
     FM172200 08006KT P6SM SCT030=



000
FTUS42 TJSJ 162300
TAFIST
TAF
TIST 162330Z 1700/1724 06005KT P6SM FEW025
     FM171300 10012KT P6SM FEW025
     FM172300 07008KT P6SM FEW025=



000
FTUS42 TJSJ 162300
TAFNCM
TAF
TNCM 162330Z 1700/1724 07009KT P6SM FEW025
     FM171300 10011KT P6SM SCT022
     FM172300 08006KT P6SM FEW022=



000
FTUS42 TJSJ 162200 AAA
TAFJMZ
TAF AMD
TJMZ 162203Z 1622/1718 15005KT P6SM VCSH BKN030
     FM162330 VRB03KT P6SM SCT040
     FM171530 27010KT P6SM SCT025 BKN040
      AMD NOT SKED 1623/1711=



000
FTUS42 TJSJ 161700
TAFJPS
TAF
TJPS 161732Z 1618/1718 16010KT P6SM FEW030
     FM162330 06005KT P6SM FEW030
     FM171500 13012KT P6SM FEW030 SCT060
      AMD NOT SKED TIL 170300=



000
FTUS42 TJSJ 161700
TAFJMZ
TAF
TJMZ 161732Z 1618/1718 27012KT P6SM VCSH SCT025 BKN035
     FM162200 VRB03KT P6SM SCT040
     FM171530 27010KT P6SM SCT025 BKN040
      AMD NOT SKED 1623/1711=



000
FTUS42 TJSJ 161700
TAFISX
TAF
TISX 161732Z 1618/1718 13012KT P6SM FEW025
     FM162300 04004KT P6SM FEW025
     FM171300 11013KT P6SM SCT025=



000
FTUS42 TJSJ 161700
TAFJBQ
TAF
TJBQ 161732Z 1618/1718 03008KT P6SM VCTS SCT025CB BKN035
     FM162200 09007KT P6SM SCT030
     FM171400 08013KT P6SM SCT025
      AMD NOT SKED 1702/1711=



000
FTUS42 TJSJ 161700
TAFNCM
TAF
TNCM 161732Z 1618/1718 12008KT P6SM FEW020
     FM162300 08006KT P6SM VCSH SCT018=



000
FTUS42 TJSJ 161700
TAFJSJ
TAF
TJSJ 161732Z 1618/1718 05014KT P6SM FEW030
     FM162200 10005KT P6SM FEW025
     FM171300 08012KT P6SM SCT025=



000
FTUS42 TJSJ 161700
TAFKPK
TAF
TKPK 161732Z 1618/1718 05012KT P6SM FEW015
     FM162300 06006KT P6SM VCSH SCT018
      AMD NOT SKED 1702/1711=



000
FTUS42 TJSJ 161700
TAFIST
TAF
TIST 161732Z 1618/1718 16010KT P6SM FEW030
     FM162300 09006KT P6SM FEW025
     FM171300 13012KT P6SM SCT025=



000
FTUS42 TJSJ 161100
TAFNCM
TAF
TNCM 161122Z 1612/1712 07004KT P6SM FEW018
     FM161400 12008KT P6SM FEW020
     FM162300 08006KT P6SM VCSH SCT018=



000
FTUS42 TJSJ 161100
TAFJMZ
TAF
TJMZ 161122Z 1612/1712 09005KT P6SM FEW030
     FM161400 25007KT P6SM FEW030
     FM161700 26010KT P6SM VCTS SCT025CB BKN035
     FM162200 VRB03KT P6SM SCT040
      AMD NOT SKED 1623/1711=



000
FTUS42 TJSJ 161100
TAFJBQ
TAF
TJBQ 161122Z 1612/1712 11005KT P6SM FEW025
     FM161400 07010KT P6SM FEW025
     FM161730 06011KT P6SM VCTS SCT025CB BKN035
     FM162200 09007KT P6SM SCT030
      AMD NOT SKED 1702/1711=



000
FTUS42 TJSJ 161100
TAFISX
TAF
TISX 161122Z 1612/1712 VRB05KT P6SM FEW025
     FM161330 11010KT P6SM FEW025
     FM162300 04004KT P6SM FEW025=



000
FTUS42 TJSJ 161100
TAFIST
TAF
TIST 161122Z 1612/1712 08004KT P6SM FEW025
     FM161330 12008KT P6SM FEW030
     FM162300 09006KT P6SM FEW025=



000
FTUS42 TJSJ 161100
TAFJSJ
TAF
TJSJ 161122Z 1612/1712 VRB03KT P6SM FEW030
     FM161430 07010KT P6SM FEW030
     FM162200 10005KT P6SM FEW025=



000
FTUS42 TJSJ 161100
TAFJPS
TAF
TJPS 161122Z 1612/1712 VRB03KT P6SM FEW030
     FM161400 16010KT P6SM FEW030
     FM162330 06005KT P6SM FEW030
      AMD NOT SKED TIL 170300=



000
FTUS42 TJSJ 161100
TAFKPK
TAF
TKPK 161122Z 1612/1712 05008KT P6SM SCT015
     FM162300 06006KT P6SM VCSH SCT018
      AMD NOT SKED 1702/1711=



000
FTUS42 TJSJ 160500
TAFKPK
TAF
TKPK 160521Z 1606/1706 04007KT P6SM FEW015
     FM161430 06008KT P6SM FEW018
     FM162300 06006KT P6SM VCSH SCT018
      AMD NOT SKED TIL 161100=



000
FTUS42 TJSJ 160500
TAFJPS
TAF
TJPS 160521Z 1606/1706 05003KT P6SM FEW025
     FM161330 16010KT P6SM FEW030
     FM162330 06005KT P6SM FEW030
      AMD NOT SKED 1612/1703=



000
FTUS42 TJSJ 160500
TAFJSJ
TAF
TJSJ 160521Z 1606/1706 VRB03KT P6SM VCSH FEW025
     FM161430 07010KT P6SM FEW025
     FM162200 10005KT P6SM FEW025=



000
FTUS42 TJSJ 160500
TAFJBQ
TAF
TJBQ 160521Z 1606/1706 11005KT P6SM VCSH SCT020
     FM161400 07010KT P6SM FEW025
     FM161730 06011KT P6SM VCTS SCT025CB BKN035
     FM162200 09007KT P6SM SCT030
      AMD NOT SKED TIL 161100=



000
FTUS42 TJSJ 160500
TAFNCM
TAF
TNCM 160521Z 1606/1706 07004KT P6SM FEW018
     FM161430 12008KT P6SM FEW020
     FM162300 08006KT P6SM VCSH SCT018=



000
FTUS42 TJSJ 160500
TAFIST
TAF
TIST 160521Z 1606/1706 08004KT P6SM FEW025
     FM161430 12008KT P6SM FEW030
     FM162300 09006KT P6SM FEW025=



000
FTUS42 TJSJ 160500
TAFJMZ
TAF
TJMZ 160521Z 1606/1706 VRB03KT P6SM FEW030
     FM161400 25007KT P6SM FEW030
     FM161700 26010KT P6SM VCTS SCT025CB BKN035
     FM162200 VRB03KT P6SM SCT040
      AMD NOT SKED TIL 161200=



000
FTUS42 TJSJ 160500
TAFISX
TAF
TISX 160521Z 1606/1706 03003KT P6SM FEW025
     FM161430 11010KT P6SM FEW025
     FM162300 04004KT P6SM FEW025=



    US Dept of Commerce
    National Oceanic and Atmospheric Administration
    National Weather Service
    1325 East West Highway
    Silver Spring, MD 20910
    Page Author: NWS Internet Services Team
Disclaimer
Information Quality
Credits
Glossary
Privacy Policy
Freedom of Information Act (FOIA)
About Us
Career Opportunities